Time;durP1;ratioP1;P1;durP2;ratioP2;P2;SDS_P1;SDS_P2;PMS_P1;PMS_P2;Temp;Humidity;BMP_temperature;BMP_pressure;BME280_temperature;BME280_humidity;BME280_pressure;Samples;Min_cycle;Max_cycle;Signal;HPM_P1;HPM_P2
2021/08/29 00:01:53;;;;;;;13.03;4.33;;;;;;;13.85;100.00;101361.00;7381725;19;20451;-58
2021/08/29 00:04:23;;;;;;;7.57;3.63;;;;;;;13.84;100.00;101363.56;7403308;19;20384;-56
2021/08/29 00:06:55;;;;;;;8.80;4.60;;;;;;;14.05;100.00;101355.66;7395138;19;20471;-57
2021/08/29 00:09:25;;;;;;;5.50;3.90;;;;;;;13.97;100.00;101358.00;7401167;19;20463;-57
2021/08/29 00:11:54;;;;;;;7.20;4.23;;;;;;;14.06;100.00;101354.88;7395389;19;20426;-56
2021/08/29 00:14:24;;;;;;;12.70;5.40;;;;;;;14.04;100.00;101351.31;7402420;19;20388;-56
2021/08/29 00:16:53;;;;;;;6.30;3.83;;;;;;;14.05;100.00;101347.88;7387555;19;20427;-53
2021/08/29 00:19:23;;;;;;;6.20;3.40;;;;;;;13.99;100.00;101348.56;7401953;19;20842;-57
2021/08/29 00:21:55;;;;;;;9.50;4.23;;;;;;;13.99;100.00;101347.66;7395103;19;20498;-57
2021/08/29 00:24:24;;;;;;;4.63;4.17;;;;;;;13.97;100.00;101349.31;7402200;19;20387;-56
2021/08/29 00:26:54;;;;;;;5.60;3.90;;;;;;;14.01;100.00;101343.44;7388103;19;20766;-57
2021/08/29 00:29:23;;;;;;;6.77;3.50;;;;;;;13.91;100.00;101344.81;7400770;19;20386;-58
2021/08/29 00:31:53;;;;;;;10.10;5.03;;;;;;;13.95;100.00;101348.38;7394810;19;20448;-58
2021/08/29 00:34:23;;;;;;;6.17;3.90;;;;;;;13.82;100.00;101357.41;7400238;19;20395;-58
2021/08/29 00:36:55;;;;;;;5.30;3.70;;;;;;;13.88;100.00;101353.34;7393045;19;20424;-55
2021/08/29 00:39:25;;;;;;;6.50;3.97;;;;;;;13.87;100.00;101355.88;7401519;19;20425;-55
2021/08/29 00:41:54;;;;;;;8.30;4.00;;;;;;;13.82;100.00;101355.72;7397349;19;20913;-57
2021/08/29 00:44:24;;;;;;;7.30;4.93;;;;;;;13.87;100.00;101353.28;7401391;19;20455;-51
2021/08/29 00:46:53;;;;;;;5.10;4.10;;;;;;;13.85;100.00;101355.81;7393464;19;20419;-56
2021/08/29 00:49:23;;;;;;;7.50;4.80;;;;;;;13.84;100.00;101356.63;7400301;19;20396;-57
2021/08/29 00:51:56;;;;;;;12.10;5.00;;;;;;;13.88;100.00;101355.94;7392673;19;20428;-52
2021/08/29 00:54:25;;;;;;;6.90;4.53;;;;;;;13.86;100.00;101355.00;7401080;19;20472;-57
2021/08/29 00:56:55;;;;;;;6.20;4.50;;;;;;;13.88;100.00;101350.75;7393326;19;20425;-56
2021/08/29 00:59:25;;;;;;;9.60;4.67;;;;;;;13.84;100.00;101348.00;7400898;19;20471;-57
2021/08/29 01:02:00;;;;;;;14.17;5.23;;;;;;;13.81;100.00;101348.75;7393762;19;20471;-53
2021/08/29 01:04:35;;;;;;;6.90;5.00;;;;;;;13.93;100.00;101347.47;7401481;19;20420;-56
2021/08/29 01:07:11;;;;;;;9.27;5.73;;;;;;;13.90;100.00;101348.22;7393570;19;20419;-53
2021/08/29 01:09:41;;;;;;;11.20;4.80;;;;;;;13.90;100.00;101338.72;7398111;19;20471;-52
2021/08/29 01:12:13;;;;;;;13.77;5.03;;;;;;;13.94;100.00;101338.84;7393235;19;20487;-56
2021/08/29 01:14:43;;;;;;;10.90;5.00;;;;;;;13.93;100.00;101331.91;7400490;19;20487;-55
2021/08/29 01:17:14;;;;;;;11.30;5.23;;;;;;;13.87;100.00;101333.44;7393332;19;20433;-50
2021/08/29 01:19:48;;;;;;;8.13;5.40;;;;;;;14.00;100.00;101332.16;7400190;19;20435;-57
2021/08/29 01:22:21;;;;;;;11.90;5.30;;;;;;;13.94;100.00;101329.34;7396576;19;20462;-57
2021/08/29 01:24:51;;;;;;;13.97;5.20;;;;;;;13.93;100.00;101324.97;7399155;19;20471;-58
2021/08/29 01:27:24;;;;;;;29.97;19.53;;;;;;;13.90;100.00;101333.53;7395450;19;21118;-57
2021/08/29 01:29:57;;;;;;;6.90;5.30;;;;;;;13.90;100.00;101323.16;7399323;19;20650;-57
2021/08/29 01:32:27;;;;;;;8.37;5.80;;;;;;;13.94;100.00;101323.28;7381386;19;20816;-57
2021/08/29 01:34:56;;;;;;;7.33;4.53;;;;;;;13.85;100.00;101323.81;7399909;19;20459;-55
2021/08/29 01:37:26;;;;;;;9.80;5.60;;;;;;;13.91;100.00;101319.72;7395026;19;20735;-57
2021/08/29 01:39:57;;;;;;;15.43;9.10;;;;;;;13.97;100.00;101323.38;7399869;19;20463;-58
2021/08/29 01:42:26;;;;;;;15.97;5.37;;;;;;;13.94;100.00;101325.88;7395831;19;20740;-57
2021/08/29 01:44:58;;;;;;;6.80;4.57;;;;;;;13.94;100.00;101318.09;7398279;19;20400;-58
2021/08/29 01:47:28;;;;;;;6.53;5.53;;;;;;;13.94;100.00;101324.16;7394425;19;20802;-56
2021/08/29 01:49:57;;;;;;;11.33;5.03;;;;;;;13.87;100.00;101322.16;7398561;19;20463;-53
2021/08/29 01:52:27;;;;;;;17.97;5.47;;;;;;;13.90;100.00;101323.16;7395650;19;20423;-57
2021/08/29 01:54:56;;;;;;;7.23;5.17;;;;;;;13.89;100.00;101334.34;7397958;19;20475;-58
2021/08/29 01:57:26;;;;;;;9.40;4.80;;;;;;;13.87;100.00;101323.06;7394646;19;20482;-56
2021/08/29 01:59:58;;;;;;;7.37;5.17;;;;;;;13.90;100.00;101319.69;7399292;19;20443;-58
2021/08/29 02:02:29;;;;;;;14.33;6.03;;;;;;;13.94;100.00;101323.28;7393556;19;20432;-58
2021/08/29 02:04:59;;;;;;;9.40;5.70;;;;;;;13.86;100.00;101316.09;7399038;19;20428;-54
2021/08/29 02:07:33;;;;;;;8.40;6.10;;;;;;;13.91;100.00;101316.25;7394538;19;20403;-54
2021/08/29 02:10:05;;;;;;;9.97;5.40;;;;;;;13.95;100.00;101312.94;7398249;19;20391;-57
2021/08/29 02:12:40;;;;;;;8.80;5.30;;;;;;;13.87;100.00;101323.06;7394635;19;20490;-58
2021/08/29 02:15:16;;;;;;;9.60;7.53;;;;;;;14.00;100.00;101311.41;7398548;19;20471;-56
2021/08/29 02:17:46;;;;;;;7.87;4.70;;;;;;;13.99;100.00;101312.22;7394354;19;20703;-58
2021/08/29 02:20:19;;;;;;;10.03;5.33;;;;;;;13.98;100.00;101313.06;7397052;19;20388;-55
2021/08/29 02:22:48;;;;;;;6.50;5.40;;;;;;;13.91;100.00;101314.53;7394941;19;20435;-55
2021/08/29 02:25:18;;;;;;;7.20;5.10;;;;;;;13.88;100.00;101308.34;7397385;19;20463;-58
2021/08/29 02:27:49;;;;;;;9.70;4.70;;;;;;;13.88;100.00;101308.34;7394744;19;20881;-59
2021/08/29 02:30:22;;;;;;;6.43;4.20;;;;;;;13.83;100.00;101305.59;7397527;19;20392;-55
2021/08/29 02:32:54;;;;;;;6.70;4.90;;;;;;;13.86;100.00;101310.03;7394049;19;20826;-55
2021/08/29 02:35:23;;;;;;;33.50;20.07;;;;;;;13.81;100.00;101304.66;7400929;19;20732;-54
2021/08/29 02:37:53;;;;;;;5.47;4.30;;;;;;;13.79;100.00;101297.66;7392153;19;20520;-59
2021/08/29 02:40:23;;;;;;;10.83;8.20;;;;;;;13.94;100.00;101302.53;7398509;19;20412;-56
2021/08/29 02:42:53;;;;;;;6.70;4.37;;;;;;;13.91;100.00;101304.16;7383246;19;20427;-59
2021/08/29 02:45:25;;;;;;;25.40;12.13;;;;;;;14.00;100.00;101300.16;7397466;19;20384;-58
2021/08/29 02:47:55;;;;;;;22.50;13.63;;;;;;;13.98;100.00;101300.09;7388923;19;20411;-58
2021/08/29 02:50:25;;;;;;;14.60;7.60;;;;;;;13.87;100.00;101299.72;7397257;19;20705;-56
2021/08/29 02:52:54;;;;;;;15.73;7.53;;;;;;;13.86;100.00;101294.47;7391317;19;20865;-57
2021/08/29 02:55:25;;;;;;;5.33;4.20;;;;;;;13.90;100.00;101301.53;7396666;19;20854;-59
2021/08/29 02:58:02;;;;;;;9.13;4.30;;;;;;;13.78;100.00;101299.34;7394120;19;20419;-55
2021/08/29 03:00:37;;;;;;;4.70;3.70;;;;;;;13.87;100.00;101297.13;7399416;19;20399;-58
2021/08/29 03:03:08;;;;;;;7.17;3.83;;;;;;;13.84;100.00;101291.81;7384426;19;20422;-55
2021/08/29 03:05:38;;;;;;;6.40;4.60;;;;;;;13.89;100.00;101290.25;7403881;19;20388;-56
2021/08/29 03:08:08;;;;;;;6.50;4.43;;;;;;;13.95;100.00;101293.91;7397201;19;20414;-56
2021/08/29 03:10:38;;;;;;;5.27;3.93;;;;;;;13.94;100.00;101290.44;7402269;19;20400;-53
2021/08/29 03:13:08;;;;;;;7.30;5.00;;;;;;;13.95;100.00;101299.09;7383327;19;20470;-57
2021/08/29 03:15:40;;;;;;;5.80;4.00;;;;;;;14.01;100.00;101287.22;7403448;19;20396;-56
2021/08/29 03:18:10;;;;;;;6.60;3.60;;;;;;;13.90;100.00;101280.78;7397755;19;20416;-59
2021/08/29 03:20:41;;;;;;;5.57;4.00;;;;;;;13.87;100.00;101281.56;7404303;19;20463;-58
2021/08/29 03:23:11;;;;;;;7.40;5.57;;;;;;;14.01;100.00;101283.75;7400310;19;20399;-56
2021/08/29 03:25:41;;;;;;;5.50;4.03;;;;;;;13.97;100.00;101287.06;7403303;19;20730;-59
2021/08/29 03:28:11;;;;;;;10.00;4.40;;;;;;;13.97;100.00;101281.88;7400272;19;20442;-59
2021/08/29 03:30:44;;;;;;;5.20;3.70;;;;;;;14.01;100.00;101273.38;7402085;19;20459;-59
2021/08/29 03:33:13;;;;;;;5.90;3.50;;;;;;;13.90;100.00;101267.81;7400192;19;20410;-59
2021/08/29 03:35:43;;;;;;;5.10;3.13;;;;;;;13.93;100.00;101274.84;7402913;19;20452;-57
2021/08/29 03:38:13;;;;;;;5.63;3.90;;;;;;;13.93;100.00;101274.84;7400164;19;20741;-57
2021/08/29 03:40:42;;;;;;;4.50;4.10;;;;;;;14.02;100.00;101269.97;7403597;19;20440;-59
2021/08/29 03:43:15;;;;;;;5.10;4.13;;;;;;;13.86;100.00;101266.81;7399440;19;20467;-57
2021/08/29 03:45:48;;;;;;;5.87;4.57;;;;;;;14.04;100.00;101266.59;7401825;19;20403;-58
2021/08/29 03:48:17;;;;;;;4.77;4.17;;;;;;;13.99;100.00;101264.66;7399216;19;20419;-56
2021/08/29 03:50:47;;;;;;;9.03;5.40;;;;;;;13.98;100.00;101263.78;7402678;19;20667;-52
2021/08/29 03:53:18;;;;;;;7.20;4.17;;;;;;;14.00;100.00;101264.72;7398984;19;20491;-58
2021/08/29 03:55:47;;;;;;;10.10;4.97;;;;;;;13.93;100.00;101267.06;7402495;19;20398;-59
2021/08/29 03:58:17;;;;;;;5.27;4.13;;;;;;;13.95;100.00;101262.78;7399536;19;20732;-56
2021/08/29 04:00:50;;;;;;;19.93;9.53;;;;;;;13.93;100.00;101260.13;7403274;19;20720;-56
2021/08/29 04:03:23;;;;;;;7.10;5.10;;;;;;;14.01;100.00;101263.00;7396960;19;20403;-59
2021/08/29 04:05:54;;;;;;;5.70;4.30;;;;;;;13.88;100.00;101266.84;7402101;19;20877;-57
2021/08/29 04:08:30;;;;;;;6.10;4.40;;;;;;;13.88;100.00;101259.97;7395756;19;20415;-59
2021/08/29 04:11:01;;;;;;;8.47;4.60;;;;;;;13.87;100.00;101260.81;7402058;19;20400;-57
2021/08/29 04:13:32;;;;;;;6.53;5.00;;;;;;;13.89;100.00;101259.13;7393083;19;20922;-56
2021/08/29 04:16:06;;;;;;;5.30;4.07;;;;;;;13.89;100.00;101264.31;7401781;19;20404;-55
2021/08/29 04:18:39;;;;;;;6.50;5.30;;;;;;;13.96;100.00;101261.94;7395714;19;20421;-58
2021/08/29 04:21:09;;;;;;;6.87;4.93;;;;;;;13.89;100.00;101261.72;7401841;19;20447;-58
2021/08/29 04:23:39;;;;;;;6.90;4.73;;;;;;;13.89;100.00;101269.50;7393760;19;20421;-59
2021/08/29 04:26:09;;;;;;;9.93;5.10;;;;;;;13.95;100.00;101270.56;7401566;19;20399;-58
2021/08/29 04:28:39;;;;;;;9.70;5.03;;;;;;;14.04;100.00;101276.06;7394805;19;20433;-58
2021/08/29 04:31:14;;;;;;;7.03;4.70;;;;;;;13.99;100.00;101275.03;7401318;19;20451;-58
2021/08/29 04:33:44;;;;;;;5.93;4.80;;;;;;;14.17;100.00;101267.88;7405812;19;20439;-57
2021/08/29 04:36:13;;;;;;;5.07;4.57;;;;;;;14.04;100.00;101263.09;7401119;19;20761;-58
2021/08/29 04:38:43;;;;;;;8.47;4.60;;;;;;;14.01;100.00;101274.25;7400911;19;20482;-58
2021/08/29 04:41:12;;;;;;;6.90;4.50;;;;;;;14.07;100.00;101271.00;7399658;19;20440;-56
2021/08/29 04:43:42;;;;;;;4.60;4.00;;;;;;;14.06;100.00;101266.66;7400016;19;20471;-57
2021/08/29 04:46:14;;;;;;;7.20;4.63;;;;;;;14.12;100.00;101277.25;7400581;19;20380;-52
2021/08/29 04:48:44;;;;;;;4.47;4.07;;;;;;;14.05;100.00;101275.25;7400748;19;20459;-58
2021/08/29 04:51:14;;;;;;;5.93;4.33;;;;;;;14.10;100.00;101268.50;7400642;19;20750;-59
2021/08/29 04:53:43;;;;;;;6.13;4.13;;;;;;;14.15;100.00;101271.28;7400307;19;20729;-54
2021/08/29 04:56:13;;;;;;;4.50;3.50;;;;;;;14.20;100.00;101267.13;7400478;19;20388;-54
2021/08/29 04:58:42;;;;;;;6.93;4.10;;;;;;;14.35;100.00;101274.56;7398797;19;20495;-57
2021/08/29 05:01:14;;;;;;;4.10;3.63;;;;;;;14.37;100.00;101272.03;7400658;19;20644;-58
2021/08/29 05:03:44;;;;;;;6.67;3.07;;;;;;;14.23;100.00;101266.34;7399706;19;20407;-58
2021/08/29 05:06:15;;;;;;;8.73;3.20;;;;;;;14.31;100.00;101272.72;7400239;19;20380;-58
2021/08/29 05:08:44;;;;;;;4.13;3.60;;;;;;;14.35;100.00;101269.38;7400414;19;20424;-57
2021/08/29 05:11:14;;;;;;;5.30;4.53;;;;;;;14.49;100.00;101268.94;7400201;19;20621;-59
2021/08/29 05:13:43;;;;;;;5.07;3.10;;;;;;;14.54;100.00;101272.59;7399210;19;20475;-59
2021/08/29 05:16:15;;;;;;;3.90;3.30;;;;;;;14.55;100.00;101266.56;7398474;19;20469;-59
2021/08/29 05:18:45;;;;;;;4.60;3.20;;;;;;;14.61;100.00;101266.75;7399824;19;20422;-57
2021/08/29 05:21:15;;;;;;;5.40;3.83;;;;;;;14.45;100.00;101265.38;7400018;19;20384;-59
2021/08/29 05:23:45;;;;;;;11.03;8.23;;;;;;;14.42;100.00;101263.53;7398629;19;20655;-55
2021/08/29 05:26:14;;;;;;;16.67;10.40;;;;;;;14.43;100.00;101257.56;7399545;19;20396;-55
2021/08/29 05:28:44;;;;;;;14.83;10.73;;;;;;;14.54;100.00;101265.69;7399357;19;20411;-57
2021/08/29 05:31:16;;;;;;;9.40;7.67;;;;;;;14.58;100.00;101264.94;7399663;19;20870;-59
2021/08/29 05:33:48;;;;;;;6.17;4.90;;;;;;;14.55;100.00;101257.06;7397853;19;20414;-60
2021/08/29 05:36:17;;;;;;;4.00;3.60;;;;;;;14.45;100.00;101265.38;7392553;19;20440;-55
2021/08/29 05:38:47;;;;;;;6.63;4.80;;;;;;;14.64;100.00;101261.69;7399198;19;20458;-58
2021/08/29 05:41:16;;;;;;;10.30;5.43;;;;;;;14.66;100.00;101265.22;7394828;19;20451;-59
2021/08/29 05:43:46;;;;;;;20.43;12.53;;;;;;;14.81;100.00;101264.88;7390552;19;20403;-55
2021/08/29 05:46:18;;;;;;;3.67;3.30;;;;;;;14.62;100.00;101263.38;7398999;19;20459;-58
2021/08/29 05:48:50;;;;;;;6.10;4.37;;;;;;;14.58;100.00;101261.47;7398904;19;20890;-59
2021/08/29 05:51:19;;;;;;;12.87;8.10;;;;;;;14.63;100.00;101265.13;7391157;19;20404;-58
2021/08/29 05:53:49;;;;;;;13.60;8.77;;;;;;;14.68;100.00;101258.34;7398619;19;20384;-59
2021/08/29 05:56:18;;;;;;;8.27;7.37;;;;;;;14.45;100.00;101268.84;7391827;19;20399;-59
2021/08/29 05:58:48;;;;;;;5.57;4.40;;;;;;;14.45;100.00;101266.25;7399070;19;20420;-59
2021/08/29 06:01:20;;;;;;;6.80;4.13;;;;;;;14.39;100.00;101268.66;7391964;19;20473;-57
2021/08/29 06:03:50;;;;;;;6.17;5.37;;;;;;;14.55;100.00;101271.75;7398501;19;20394;-57
2021/08/29 06:06:19;;;;;;;10.07;7.40;;;;;;;14.62;100.00;101273.75;7384008;19;20388;-59
2021/08/29 06:08:49;;;;;;;27.10;17.63;;;;;;;14.65;100.00;101268.63;7398567;19;20866;-58
2021/08/29 06:11:18;;;;;;;6.43;4.13;;;;;;;14.60;100.00;101272.78;7390141;19;20451;-57
2021/08/29 06:13:48;;;;;;;8.00;4.27;;;;;;;14.60;100.00;101275.38;7396049;19;20902;-59
2021/08/29 06:16:20;;;;;;;6.03;4.93;;;;;;;14.58;100.00;101277.06;7391543;19;20395;-58
2021/08/29 06:18:50;;;;;;;5.13;4.43;;;;;;;14.61;100.00;101265.91;7398372;19;20379;-58
2021/08/29 06:21:19;;;;;;;15.27;9.70;;;;;;;14.65;100.00;101266.03;7391868;19;20667;-56
2021/08/29 06:23:48;;;;;;;6.63;5.00;;;;;;;14.55;100.00;101267.47;7397850;19;20717;-59
2021/08/29 06:26:19;;;;;;;5.80;4.33;;;;;;;14.58;100.00;101272.72;7378631;19;20388;-59
2021/08/29 06:28:49;;;;;;;10.67;6.53;;;;;;;14.67;100.00;101282.56;7398111;19;20846;-56
2021/08/29 06:31:21;;;;;;;15.07;9.37;;;;;;;14.75;100.00;101277.66;7389681;19;20463;-59
2021/08/29 06:33:50;;;;;;;7.10;4.93;;;;;;;14.75;100.00;101279.34;7395950;19;20396;-58
2021/08/29 06:36:20;;;;;;;5.50;4.80;;;;;;;14.65;100.00;101278.13;7399184;19;20399;-57
2021/08/29 06:38:49;;;;;;;30.97;21.57;;;;;;;14.80;100.00;101272.59;7405123;19;20463;-56
2021/08/29 06:41:19;;;;;;;5.27;4.33;;;;;;;14.71;100.00;101274.03;7398814;19;20447;-59
2021/08/29 06:43:48;;;;;;;14.63;11.50;;;;;;;14.79;100.00;101276.03;7404770;19;20663;-56
2021/08/29 06:46:20;;;;;;;37.70;26.30;;;;;;;14.84;100.00;101280.56;7398379;19;20463;-59
2021/08/29 06:48:50;;;;;;;17.10;12.43;;;;;;;14.85;100.00;101276.22;7404899;19;20394;-59
2021/08/29 06:51:20;;;;;;;15.80;10.50;;;;;;;14.92;100.00;101278.19;7396738;19;20455;-58
2021/08/29 06:53:49;;;;;;;4.93;3.67;;;;;;;14.91;100.00;101281.63;7402223;19;20455;-58
2021/08/29 06:56:18;;;;;;;18.20;7.97;;;;;;;15.07;100.00;101274.34;7397498;19;20727;-58
2021/08/29 06:58:48;;;;;;;8.33;4.00;;;;;;;14.97;100.00;101266.22;7404425;19;20399;-58
2021/08/29 07:01:17;;;;;;;13.07;10.03;;;;;;;15.04;100.00;101274.22;7398369;19;20401;-58
2021/08/29 07:03:50;;;;;;;23.53;17.50;;;;;;;15.10;100.00;101270.13;7404109;19;20384;-58
2021/08/29 07:06:19;;;;;;;4.33;2.90;;;;;;;14.97;100.00;101263.63;7392338;19;20388;-57
2021/08/29 07:08:49;;;;;;;8.10;6.07;;;;;;;14.94;100.00;101262.66;7402615;19;20463;-58
2021/08/29 07:11:18;;;;;;;3.90;3.50;;;;;;;14.94;100.00;101260.97;7397503;19;20396;-59
2021/08/29 07:13:48;;;;;;;4.00;3.30;;;;;;;14.94;100.00;101266.16;7401793;19;20474;-59
2021/08/29 07:16:17;;;;;;;16.53;12.20;;;;;;;15.03;100.00;101267.28;7397033;19;20447;-57
2021/08/29 07:18:49;;;;;;;3.50;3.20;;;;;;;15.11;100.00;101273.59;7403948;19;20483;-58
2021/08/29 07:21:19;;;;;;;4.00;3.30;;;;;;;15.04;100.00;101276.81;7397475;19;20398;-58
2021/08/29 07:23:49;;;;;;;14.63;10.07;;;;;;;15.10;100.00;101270.13;7403547;19;20388;-57
2021/08/29 07:26:18;;;;;;;8.57;6.17;;;;;;;15.13;100.00;101271.94;7395152;19;20395;-60
2021/08/29 07:28:48;;;;;;;9.30;5.70;;;;;;;15.19;100.00;101272.13;7403666;19;20403;-59
2021/08/29 07:31:17;;;;;;;11.17;6.73;;;;;;;15.17;100.00;101270.31;7397155;19;20387;-59
2021/08/29 07:33:49;;;;;;;7.43;4.20;;;;;;;15.25;100.00;101274.00;7401311;19;20397;-59
2021/08/29 07:36:19;;;;;;;9.50;6.70;;;;;;;15.32;100.00;101272.47;7396740;19;20392;-59
2021/08/29 07:38:48;;;;;;;6.47;4.57;;;;;;;15.38;100.00;101278.75;7403257;19;20409;-60
2021/08/29 07:41:18;;;;;;;4.77;3.40;;;;;;;15.41;100.00;101267.56;7395665;19;20400;-57
2021/08/29 07:43:47;;;;;;;4.73;2.50;;;;;;;15.40;100.00;101260.59;7402687;19;20459;-58
2021/08/29 07:46:17;;;;;;;3.90;2.73;;;;;;;15.38;100.00;101262.25;7395993;19;20387;-60
2021/08/29 07:48:49;;;;;;;5.37;3.00;;;;;;;15.47;100.00;101275.53;7403000;19;20387;-58
2021/08/29 07:51:19;;;;;;;4.43;3.63;;;;;;;15.56;100.00;101269.75;7386501;19;20471;-59
2021/08/29 07:53:48;;;;;;;5.97;5.07;;;;;;;15.58;100.00;101273.25;7401209;19;20395;-53
2021/08/29 07:56:18;;;;;;;6.03;2.70;;;;;;;15.61;100.00;101269.88;7396170;19;20725;-60
2021/08/29 07:58:47;;;;;;;5.10;2.30;;;;;;;15.60;100.00;101273.31;7400697;19;20404;-59
2021/08/29 08:01:17;;;;;;;3.07;2.77;;;;;;;15.59;100.00;101277.63;7396080;19;20413;-59
2021/08/29 08:03:49;;;;;;;8.10;5.90;;;;;;;15.62;100.00;101276.81;7401996;19;20388;-57
2021/08/29 08:06:23;;;;;;;9.80;4.87;;;;;;;15.62;100.00;101276.81;7395585;19;20436;-53
2021/08/29 08:08:52;;;;;;;9.23;1.90;;;;;;;15.69;100.00;101268.34;7402238;19;20397;-59
2021/08/29 08:11:22;;;;;;;6.47;4.90;;;;;;;15.87;100.00;101272.31;7395833;19;20489;-56
2021/08/29 08:13:51;;;;;;;5.47;3.80;;;;;;;15.81;100.00;101273.06;7400573;19;20646;-58
2021/08/29 08:16:21;;;;;;;2.30;2.10;;;;;;;15.89;100.00;101278.47;7395553;19;20432;-58
2021/08/29 08:18:53;;;;;;;5.40;3.90;;;;;;;16.06;100.00;101268.56;7400300;19;20389;-59
2021/08/29 08:21:22;;;;;;;8.07;6.50;;;;;;;16.12;100.00;101273.03;7395451;19;20418;-59
2021/08/29 08:23:52;;;;;;;4.13;3.17;;;;;;;16.03;100.00;101269.34;7401309;19;20394;-59
2021/08/29 08:26:21;;;;;;;5.27;3.20;;;;;;;16.14;100.00;101272.25;7394890;19;20720;-60
2021/08/29 08:28:51;;;;;;;4.37;3.13;;;;;;;16.17;100.00;101277.56;7401659;19;20464;-58
2021/08/29 08:31:22;;;;;;;8.57;3.53;;;;;;;16.10;100.00;101280.81;7395059;19;20399;-59
2021/08/29 08:33:54;;;;;;;5.80;4.20;;;;;;;16.17;100.00;101287.97;7400277;19;20393;-58
2021/08/29 08:36:24;;;;;;;1.40;1.20;;;;;;;16.15;100.00;101283.56;7392916;19;20879;-59
2021/08/29 08:38:53;;;;;;;3.30;2.77;;;;;;;16.23;100.00;101276.81;7401250;19;20459;-59
2021/08/29 08:41:23;;;;;;;6.10;4.63;;;;;;;16.27;100.00;101281.28;7394667;19;20420;-57
2021/08/29 08:43:53;;;;;;;1.60;1.30;;;;;;;16.10;100.00;101269.53;7405420;19;20404;-59
2021/08/29 08:46:23;;;;;;;1.73;1.20;;;;;;;16.18;100.00;101281.91;7394505;19;20461;-59
2021/08/29 08:48:56;;;;;;;2.10;1.90;;;;;;;16.27;100.00;101275.19;7400939;19;20660;-59
2021/08/29 08:51:28;;;;;;;3.93;1.67;;;;;;;16.25;100.00;101284.69;7393741;19;20448;-56
2021/08/29 08:53:58;;;;;;;1.60;1.33;;;;;;;16.20;100.00;101287.13;7399172;19;20388;-58
2021/08/29 08:56:28;;;;;;;2.90;2.03;;;;;;;16.21;100.00;101294.13;7393969;19;20396;-57
2021/08/29 08:59:00;;;;;;;3.23;2.93;;;;;;;16.28;100.00;101295.16;7398937;19;20459;-58
2021/08/29 09:01:30;;;;;;;2.03;1.83;;;;;;;16.21;100.00;101291.53;7393848;19;20463;-57
2021/08/29 09:04:03;;;;;;;2.27;1.70;;;;;;;16.28;100.00;101298.66;7400554;19;20381;-59
2021/08/29 09:06:35;;;;;;;2.57;1.83;;;;;;;16.43;100.00;101300.78;7394224;19;20393;-58
2021/08/29 09:09:05;;;;;;;6.50;4.67;;;;;;;16.52;100.00;101302.75;7400779;19;20440;-60
2021/08/29 09:11:43;;;;;;;2.70;2.50;;;;;;;16.45;100.00;101306.00;7386147;19;20435;-59
2021/08/29 09:14:12;;;;;;;3.10;2.60;;;;;;;16.42;100.00;101296.41;7399611;19;20401;-56
2021/08/29 09:16:42;;;;;;;1.80;1.70;;;;;;;16.43;100.00;101305.09;7392004;19;20479;-58
2021/08/29 09:19:14;;;;;;;15.20;10.10;;;;;;;16.50;100.00;101300.94;7400554;19;20398;-58
2021/08/29 09:21:44;;;;;;;13.00;6.00;;;;;;;16.53;100.00;101301.00;7392948;19;20555;-58
2021/08/29 09:24:15;;;;;;;1.93;1.70;;;;;;;16.45;100.00;101306.00;7400238;19;20452;-60
2021/08/29 09:26:47;;;;;;;3.50;3.20;;;;;;;16.57;100.00;101308.94;7392843;19;20415;-60
2021/08/29 09:29:21;;;;;;;4.10;3.23;;;;;;;16.50;100.00;101307.03;7399719;19;20386;-58
2021/08/29 09:31:52;;;;;;;2.10;1.90;;;;;;;16.50;100.00;101311.38;7380599;19;20410;-60
2021/08/29 09:34:25;;;;;;;6.43;4.63;;;;;;;16.52;100.00;101322.69;7399258;19;20453;-59
2021/08/29 09:37:02;;;;;;;2.00;1.80;;;;;;;16.48;100.00;101316.53;7392619;19;20500;-59
2021/08/29 09:39:31;;;;;;;2.43;2.23;;;;;;;16.47;100.00;101318.25;7399785;19;20462;-59
2021/08/29 09:42:04;;;;;;;4.40;2.83;;;;;;;16.47;100.00;101315.63;7371931;19;20422;-55
2021/08/29 09:44:35;;;;;;;2.30;2.10;;;;;;;16.65;100.00;101331.69;7399788;19;20388;-59
2021/08/29 09:47:06;;;;;;;3.47;3.17;;;;;;;16.64;100.00;101319.50;7390846;19;20427;-59
2021/08/29 09:49:39;;;;;;;1.93;1.73;;;;;;;16.51;100.00;101318.34;7399377;19;20394;-58
2021/08/29 09:52:09;;;;;;;6.13;3.77;;;;;;;16.59;100.00;101317.69;7391807;19;20483;-60
2021/08/29 09:54:40;;;;;;;3.20;2.90;;;;;;;16.61;100.00;101320.31;7398445;19;20392;-57
2021/08/29 09:57:11;;;;;;;6.10;2.27;;;;;;;16.54;100.00;101329.72;7377431;19;20483;-58
2021/08/29 09:59:42;;;;;;;2.57;2.23;;;;;;;16.61;100.00;101330.72;7398885;19;20447;-56
2021/08/29 10:02:13;;;;;;;2.53;2.33;;;;;;;16.48;100.00;101334.75;7392327;19;20405;-55
2021/08/29 10:04:45;;;;;;;3.60;3.23;;;;;;;16.51;100.00;101332.22;7397908;19;20392;-55
2021/08/29 10:07:17;;;;;;;2.43;2.23;;;;;;;16.46;100.00;101339.06;7391374;19;20419;-57
2021/08/29 10:09:48;;;;;;;3.23;2.20;;;;;;;16.47;100.00;101333.00;7398479;19;20395;-57
2021/08/29 10:12:18;;;;;;;3.60;2.90;;;;;;;16.39;100.00;101335.38;7398864;19;20498;-58
2021/08/29 10:14:48;;;;;;;3.53;2.60;;;;;;;16.43;100.00;101341.56;7405091;19;20459;-57
2021/08/29 10:17:17;;;;;;;3.40;2.37;;;;;;;16.50;100.00;101335.66;7398904;19;20413;-54
2021/08/29 10:19:49;;;;;;;3.60;3.30;;;;;;;16.51;100.00;101340.03;7405973;19;20398;-56
2021/08/29 10:22:19;;;;;;;6.13;4.53;;;;;;;16.44;100.00;101340.72;7398081;19;20422;-58
2021/08/29 10:24:49;;;;;;;4.43;3.27;;;;;;;16.50;100.00;101342.63;7405135;19;20467;-55
2021/08/29 10:27:20;;;;;;;9.57;3.83;;;;;;;16.41;100.00;101330.22;7398589;19;20486;-57
2021/08/29 10:29:51;;;;;;;7.57;4.57;;;;;;;16.45;100.00;101329.44;7405671;19;20456;-56
2021/08/29 10:32:27;;;;;;;11.70;8.40;;;;;;;16.36;100.00;101335.28;7391782;19;20488;-54
2021/08/29 10:35:00;;;;;;;4.23;3.40;;;;;;;16.33;100.00;101330.91;7404484;19;20383;-57
2021/08/29 10:37:29;;;;;;;5.90;4.67;;;;;;;16.39;100.00;101339.69;7397969;19;20495;-58
2021/08/29 10:39:59;;;;;;;10.27;5.87;;;;;;;16.35;100.00;101343.09;7405301;19;20451;-57
2021/08/29 10:42:29;;;;;;;7.23;5.00;;;;;;;16.35;100.00;101341.34;7396484;19;20478;-57
2021/08/29 10:44:59;;;;;;;9.23;5.20;;;;;;;16.45;100.00;101345.97;7405626;19;20391;-56
2021/08/29 10:47:28;;;;;;;10.33;5.77;;;;;;;16.50;100.00;101343.47;7397260;19;20478;-57
2021/08/29 10:50:02;;;;;;;10.73;6.47;;;;;;;16.71;100.00;101347.47;7405165;19;20463;-58
2021/08/29 10:52:32;;;;;;;8.83;4.70;;;;;;;16.77;100.00;101347.63;7400074;19;20536;-57
2021/08/29 10:55:05;;;;;;;6.40;5.47;;;;;;;16.78;100.00;101340.72;7404718;19;20467;-57
2021/08/29 10:57:36;;;;;;;6.13;5.43;;;;;;;16.82;100.00;101345.19;7397474;19;20422;-57
2021/08/29 11:00:11;;;;;;;12.23;6.67;;;;;;;16.77;100.00;101347.63;7404051;19;20387;-57
2021/08/29 11:02:45;;;;;;;9.47;5.70;;;;;;;16.74;100.00;101344.97;7397477;19;20434;-55
2021/08/29 11:05:20;;;;;;;7.80;6.20;;;;;;;16.77;100.00;101347.63;7404949;19;20383;-58
2021/08/29 11:07:54;;;;;;;9.77;6.30;;;;;;;16.66;100.00;101351.72;7397383;19;20432;-56
2021/08/29 11:10:50;;;;;;;10.43;6.00;;;;;;;16.56;100.00;101348.84;7404831;19;20394;-57
2021/08/29 11:13:39;;;;;;;8.93;6.23;;;;;;;16.57;100.00;101358.44;7396814;19;20492;-58
2021/08/29 11:16:35;;;;;;;14.80;6.70;;;;;;;16.47;100.00;101359.03;7401780;19;20885;-57
2021/08/29 11:19:16;;;;;;;8.30;6.40;;;;;;;16.49;100.00;101361.66;7401027;19;20443;-58
2021/08/29 11:22:16;;;;;;;8.77;6.53;;;;;;;16.52;100.00;101373.06;7395667;19;20410;-57
2021/08/29 11:24:53;;;;;;;6.60;5.83;;;;;;;16.53;100.00;101358.31;7404218;19;20388;-57
2021/08/29 11:27:44;;;;;;;9.37;6.40;;;;;;;16.57;100.00;101366.25;7395474;19;20427;-57
2021/08/29 11:30:16;;;;;;;7.93;5.80;;;;;;;16.63;100.00;101367.25;7403985;19;20399;-56
2021/08/29 11:32:47;;;;;;;8.57;6.43;;;;;;;16.51;100.00;101360.88;7396558;19;20415;-57